Time;durP1;ratioP1;P1;durP2;ratioP2;P2;SDS_P1;SDS_P2;PMS_P1;PMS_P2;Temp;Humidity;BMP_temperature;BMP_pressure;BME280_temperature;BME280_humidity;BME280_pressure;Samples;Min_cycle;Max_cycle;Signal;HPM_P1;HPM_P2
2023/01/22 00:01:08;;;;;;;5.57;2.10;;;20.10;99.90;;;;;;5073961;28;20183;-70
2023/01/22 00:03:37;;;;;;;3.63;1.90;;;20.00;99.90;;;;;;5073974;28;20698;-72
2023/01/22 00:06:04;;;;;;;7.30;1.73;;;20.10;99.90;;;;;;5073570;28;20175;-71
2023/01/22 00:08:32;;;;;;;3.83;1.70;;;20.20;99.90;;;;;;5073771;28;20212;-77
2023/01/22 00:11:00;;;;;;;6.80;2.20;;;20.40;99.90;;;;;;5074000;28;20187;-80
2023/01/22 00:13:28;;;;;;;4.90;1.70;;;20.30;99.90;;;;;;5073478;28;20175;-73
2023/01/22 00:15:59;;;;;;;5.00;1.97;;;20.30;99.90;;;;;;5073342;28;20251;-72
2023/01/22 00:18:27;;;;;;;5.17;1.63;;;20.40;99.90;;;;;;5073483;28;20264;-76
2023/01/22 00:20:55;;;;;;;9.10;1.80;;;20.60;99.90;;;;;;5072998;28;20184;-81
2023/01/22 00:23:23;;;;;;;4.27;1.73;;;20.50;99.90;;;;;;5071237;28;20180;-72
2023/01/22 00:26:01;;;;;;;7.33;1.70;;;20.50;99.90;;;;;;5073197;28;20257;-71
2023/01/22 00:28:29;;;;;;;5.60;1.13;;;20.60;99.90;;;;;;5072910;28;20222;-69
2023/01/22 00:31:04;;;;;;;5.60;1.40;;;20.70;99.90;;;;;;5073551;28;20561;-70
2023/01/22 00:33:32;;;;;;;4.77;1.53;;;20.90;99.90;;;;;;5073412;28;20194;-72
2023/01/22 00:36:08;;;;;;;3.03;1.07;;;21.00;99.90;;;;;;5073022;28;20185;-71
2023/01/22 00:38:36;;;;;;;4.33;1.13;;;21.00;99.90;;;;;;5073335;28;20182;-75
2023/01/22 00:41:06;;;;;;;3.17;1.20;;;21.00;99.90;;;;;;5073394;28;20210;-75
2023/01/22 00:43:37;;;;;;;4.47;1.63;;;21.20;99.90;;;;;;5071998;28;20229;-72
2023/01/22 00:46:05;;;;;;;5.90;1.63;;;21.30;99.90;;;;;;5072391;28;20248;-70
2023/01/22 00:48:32;;;;;;;4.07;1.67;;;21.40;99.90;;;;;;5072190;28;20609;-78
2023/01/22 00:51:00;;;;;;;4.70;1.30;;;21.30;99.90;;;;;;5072897;28;20188;-70
2023/01/22 00:53:27;;;;;;;2.47;1.03;;;21.40;99.90;;;;;;5063484;28;20177;-70
2023/01/22 00:55:57;;;;;;;3.80;1.20;;;21.50;99.90;;;;;;5070407;28;20199;-70
2023/01/22 00:58:25;;;;;;;4.70;1.30;;;21.60;99.90;;;;;;5072050;28;20226;-71
2023/01/22 01:00:53;;;;;;;5.67;1.60;;;21.80;99.90;;;;;;5071857;28;20288;-74
2023/01/22 01:03:27;;;;;;;2.13;1.10;;;21.90;99.90;;;;;;5072575;28;20197;-69
2023/01/22 01:05:54;;;;;;;6.60;1.53;;;22.00;99.90;;;;;;5072844;28;20309;-73
2023/01/22 01:08:23;;;;;;;7.27;1.60;;;22.00;99.90;;;;;;5072493;28;20240;-72
2023/01/22 01:11:04;;;;;;;3.23;1.53;;;22.20;99.90;;;;;;5071823;28;20187;-69
2023/01/22 01:13:37;;;;;;;4.10;1.53;;;22.30;99.90;;;;;;5072687;28;20178;-73
2023/01/22 01:16:07;;;;;;;8.20;1.67;;;22.40;99.90;;;;;;5072133;28;20170;-70
2023/01/22 01:18:35;;;;;;;9.07;1.70;;;22.40;99.90;;;;;;5071932;28;20270;-71
2023/01/22 01:21:03;;;;;;;4.60;1.67;;;22.40;99.90;;;;;;5071961;28;20234;-72
2023/01/22 01:23:31;;;;;;;3.63;1.57;;;22.50;99.90;;;;;;5071114;28;20183;-69
2023/01/22 01:25:58;;;;;;;5.40;1.53;;;22.60;99.90;;;;;;5072209;28;20195;-69
2023/01/22 01:28:27;;;;;;;4.30;1.90;;;22.60;99.90;;;;;;5071586;28;20684;-69
2023/01/22 01:30:54;;;;;;;4.70;1.40;;;22.70;99.90;;;;;;5072436;28;20334;-75
2023/01/22 01:33:22;;;;;;;6.17;1.40;;;22.80;99.90;;;;;;5071739;28;20183;-69
2023/01/22 01:35:57;;;;;;;5.27;1.83;;;22.80;99.90;;;;;;5072167;28;20179;-77
2023/01/22 01:38:24;;;;;;;4.80;1.37;;;22.90;99.90;;;;;;5071599;28;20210;-69
2023/01/22 01:40:52;;;;;;;4.10;1.50;;;23.10;99.90;;;;;;5071921;28;20643;-68
2023/01/22 01:43:19;;;;;;;4.13;1.37;;;23.10;99.90;;;;;;5070773;28;20660;-70
2023/01/22 01:45:47;;;;;;;4.83;1.03;;;23.00;99.90;;;;;;5070699;28;20637;-68
2023/01/22 01:48:37;;;;;;;5.73;1.40;;;23.10;99.90;;;;;;5071385;28;20250;-68
2023/01/22 01:51:04;;;;;;;3.67;1.30;;;22.80;99.90;;;;;;5070869;28;20214;-70
2023/01/22 01:53:32;;;;;;;3.97;1.30;;;22.70;99.90;;;;;;5071834;28;20210;-76
2023/01/22 01:56:04;;;;;;;3.63;1.23;;;22.60;99.90;;;;;;5070374;28;20278;-72
2023/01/22 01:58:33;;;;;;;7.40;1.33;;;22.60;99.90;;;;;;5070505;28;20216;-68
2023/01/22 02:01:09;;;;;;;5.77;1.50;;;22.60;99.90;;;;;;5070348;28;20190;-71
2023/01/22 02:03:38;;;;;;;5.17;1.30;;;22.60;99.90;;;;;;5070324;28;20239;-69
2023/01/22 02:06:09;;;;;;;4.87;1.17;;;22.50;99.90;;;;;;5071337;28;20191;-68
2023/01/22 02:08:36;;;;;;;5.57;1.33;;;22.40;99.90;;;;;;5071692;28;20231;-74
2023/01/22 02:11:04;;;;;;;4.97;1.80;;;22.20;99.90;;;;;;5071409;28;20298;-69
2023/01/22 02:13:35;;;;;;;4.27;1.10;;;22.20;99.90;;;;;;5070282;28;20222;-74
2023/01/22 02:16:04;;;;;;;4.67;1.07;;;22.20;99.90;;;;;;5070968;28;20187;-72
2023/01/22 02:18:31;;;;;;;4.20;1.23;;;22.30;99.90;;;;;;5071167;28;20187;-72
2023/01/22 02:21:00;;;;;;;10.90;1.53;;;22.30;99.90;;;;;;5071619;28;20590;-71
2023/01/22 02:23:30;;;;;;;4.83;1.20;;;22.40;99.90;;;;;;5071308;28;20284;-71
2023/01/22 02:25:59;;;;;;;7.90;1.73;;;22.50;99.90;;;;;;5071115;28;20191;-76
2023/01/22 02:28:26;;;;;;;4.03;1.00;;;22.50;99.90;;;;;;5071560;28;20214;-70
2023/01/22 02:30:54;;;;;;;5.00;1.10;;;22.80;99.90;;;;;;5070865;28;20236;-77
2023/01/22 02:33:21;;;;;;;7.87;1.90;;;22.90;99.90;;;;;;5069874;28;20187;-72
2023/01/22 02:35:49;;;;;;;5.83;1.00;;;23.10;99.90;;;;;;5069423;28;20190;-70
2023/01/22 02:38:16;;;;;;;5.23;1.30;;;23.10;99.90;;;;;;5076197;28;20187;-69
2023/01/22 02:40:47;;;;;;;5.37;1.13;;;23.10;99.90;;;;;;5075938;28;20261;-70
2023/01/22 02:43:15;;;;;;;4.43;1.17;;;23.10;99.90;;;;;;5074909;28;20221;-70
2023/01/22 02:45:43;;;;;;;4.70;1.10;;;23.00;99.90;;;;;;5075242;28;20249;-71
2023/01/22 02:48:10;;;;;;;10.83;1.40;;;23.00;99.90;;;;;;5074821;28;20304;-72
2023/01/22 02:50:37;;;;;;;4.20;1.00;;;22.90;99.90;;;;;;5075133;28;20187;-71
2023/01/22 02:53:05;;;;;;;6.63;1.40;;;22.80;99.90;;;;;;5075273;28;20181;-71
2023/01/22 02:55:32;;;;;;;4.93;1.30;;;22.70;99.90;;;;;;5074766;28;20683;-69
2023/01/22 02:58:00;;;;;;;7.43;1.20;;;22.70;99.90;;;;;;5074544;28;20257;-70
2023/01/22 03:00:27;;;;;;;7.37;1.20;;;22.70;99.90;;;;;;5073684;28;20187;-70
2023/01/22 03:02:55;;;;;;;4.43;1.30;;;22.70;99.90;;;;;;5074175;28;20653;-70
2023/01/22 03:05:24;;;;;;;6.83;1.50;;;22.50;99.90;;;;;;5074678;28;20544;-71
2023/01/22 03:07:51;;;;;;;5.60;1.40;;;22.60;99.90;;;;;;5073732;28;20692;-71
2023/01/22 03:10:20;;;;;;;6.00;1.20;;;22.50;99.90;;;;;;5072679;28;20281;-72
2023/01/22 03:21:17;;;;;;;3.23;1.10;;;22.00;99.90;;;;;;5074811;28;20186;-71
2023/01/22 03:23:46;;;;;;;4.97;1.03;;;22.10;99.90;;;;;;5074405;28;20187;-70
2023/01/22 03:26:14;;;;;;;6.63;0.87;;;21.90;99.90;;;;;;5074310;28;20179;-70
2023/01/22 03:28:41;;;;;;;4.27;1.03;;;21.90;99.90;;;;;;5074608;28;20676;-69
2023/01/22 03:31:09;;;;;;;2.37;0.97;;;21.70;99.90;;;;;;5074243;28;20179;-71
2023/01/22 03:33:37;;;;;;;4.70;1.20;;;21.60;99.90;;;;;;5074140;28;20736;-71
2023/01/22 03:36:07;;;;;;;6.37;1.73;;;21.60;99.90;;;;;;5073174;28;20169;-71
2023/01/22 03:38:34;;;;;;;3.73;1.70;;;21.60;99.90;;;;;;5074121;28;20180;-72
2023/01/22 03:41:07;;;;;;;6.77;1.90;;;21.70;99.90;;;;;;5073935;28;20186;-71
2023/01/22 03:43:35;;;;;;;6.37;1.70;;;21.60;99.90;;;;;;5073345;28;20618;-72
2023/01/22 03:46:09;;;;;;;4.83;1.70;;;21.70;99.90;;;;;;5073983;28;20556;-72
2023/01/22 03:48:37;;;;;;;4.77;1.73;;;21.60;99.90;;;;;;5074104;28;20284;-72
2023/01/22 03:51:05;;;;;;;8.43;1.70;;;21.70;99.90;;;;;;5073061;28;20260;-70
2023/01/22 03:53:33;;;;;;;5.77;1.97;;;21.80;99.90;;;;;;5073882;28;20182;-71
2023/01/22 03:56:04;;;;;;;7.03;2.00;;;21.80;99.90;;;;;;5072699;28;20230;-73
2023/01/22 03:58:32;;;;;;;8.73;2.10;;;21.90;99.90;;;;;;5073885;28;20588;-71
2023/01/22 04:01:08;;;;;;;5.83;2.10;;;21.90;99.90;;;;;;5073615;28;20182;-72
2023/01/22 04:03:36;;;;;;;6.70;2.23;;;21.90;99.90;;;;;;5073214;28;20220;-71
2023/01/22 04:06:04;;;;;;;4.93;1.90;;;21.80;99.90;;;;;;5074123;28;20180;-74
2023/01/22 04:08:34;;;;;;;3.37;1.67;;;21.70;99.90;;;;;;5073290;28;20596;-72
2023/01/22 04:11:02;;;;;;;4.93;2.03;;;21.50;99.90;;;;;;5073156;28;20622;-73
2023/01/22 04:13:31;;;;;;;12.53;2.80;;;21.50;99.90;;;;;;5074118;28;20216;-74
2023/01/22 04:15:59;;;;;;;6.47;1.60;;;20.90;99.90;;;;;;5073281;28;20622;-72
2023/01/22 04:18:27;;;;;;;5.53;1.50;;;20.50;99.90;;;;;;5072328;28;20935;-71
2023/01/22 04:20:54;;;;;;;6.67;1.43;;;20.10;99.90;;;;;;5073639;28;20184;-70
2023/01/22 04:23:22;;;;;;;4.17;1.67;;;19.80;99.90;;;;;;5072600;28;20197;-70
2023/01/22 04:25:50;;;;;;;10.40;1.50;;;19.60;99.90;;;;;;5073595;28;20273;-70
2023/01/22 04:28:18;;;;;;;8.70;1.47;;;19.50;99.90;;;;;;5073000;28;20294;-70
2023/01/22 04:30:48;;;;;;;7.23;1.37;;;19.50;99.90;;;;;;5073108;28;20264;-81
2023/01/22 04:33:16;;;;;;;6.80;1.43;;;19.50;99.90;;;;;;5073557;28;20282;-75
2023/01/22 04:35:43;;;;;;;4.93;1.47;;;19.60;99.90;;;;;;5073245;28;20176;-77
2023/01/22 04:38:13;;;;;;;8.77;2.50;;;19.70;99.90;;;;;;5073213;28;20244;-70
2023/01/22 04:40:40;;;;;;;7.83;1.57;;;19.80;99.90;;;;;;5073226;28;20250;-70
2023/01/22 04:43:09;;;;;;;5.90;1.43;;;19.90;99.90;;;;;;5073038;28;20185;-70
2023/01/22 04:45:36;;;;;;;5.53;1.83;;;19.90;99.90;;;;;;5072796;28;20186;-70
2023/01/22 04:48:04;;;;;;;6.57;1.70;;;19.90;99.90;;;;;;5071545;28;20227;-70
2023/01/22 04:50:33;;;;;;;4.33;1.60;;;20.00;99.90;;;;;;5072555;28;20176;-69
2023/01/22 04:53:01;;;;;;;6.27;1.70;;;19.90;99.90;;;;;;5072625;28;20637;-71
2023/01/22 04:55:29;;;;;;;6.07;1.47;;;20.00;99.90;;;;;;5072793;28;20226;-72
2023/01/22 04:57:58;;;;;;;4.83;1.20;;;20.10;99.90;;;;;;5072676;28;20695;-71
2023/01/22 05:00:27;;;;;;;7.53;1.30;;;20.00;99.90;;;;;;5072383;28;20178;-72
2023/01/22 05:02:59;;;;;;;4.23;1.40;;;20.10;99.90;;;;;;5072507;28;20549;-71
2023/01/22 05:05:28;;;;;;;4.00;1.27;;;20.10;99.90;;;;;;5072229;28;20187;-71
2023/01/22 05:07:57;;;;;;;4.77;1.07;;;20.00;99.90;;;;;;5058824;28;20297;-70
2023/01/22 05:10:25;;;;;;;4.40;1.00;;;20.00;99.90;;;;;;5062839;28;20314;-71
2023/01/22 05:12:52;;;;;;;2.60;1.20;;;19.90;99.90;;;;;;5072586;28;20649;-78
2023/01/22 05:15:20;;;;;;;3.80;1.43;;;19.90;99.90;;;;;;5071493;28;20183;-72
2023/01/22 05:17:47;;;;;;;6.63;1.53;;;20.00;99.90;;;;;;5072272;28;20187;-71
2023/01/22 05:20:15;;;;;;;7.43;2.00;;;20.10;99.90;;;;;;5072586;28;20266;-75
2023/01/22 05:22:42;;;;;;;4.57;1.40;;;20.10;99.90;;;;;;5070621;28;20192;-79
2023/01/22 05:25:10;;;;;;;5.30;1.40;;;20.10;99.90;;;;;;5072445;28;20195;-70
2023/01/22 05:27:37;;;;;;;5.77;1.40;;;20.20;99.90;;;;;;5071974;28;20208;-70
2023/01/22 05:30:06;;;;;;;3.13;1.50;;;20.10;99.90;;;;;;5071942;28;20306;-69
2023/01/22 05:32:33;;;;;;;9.60;1.70;;;20.10;99.90;;;;;;5070825;28;20231;-71
2023/01/22 05:35:00;;;;;;;4.37;1.40;;;20.20;99.90;;;;;;5072147;28;20269;-70
2023/01/22 05:37:28;;;;;;;4.10;1.20;;;20.20;99.90;;;;;;5071859;28;20213;-70
2023/01/22 05:39:55;;;;;;;6.43;1.27;;;20.20;99.90;;;;;;5071831;28;20195;-70
2023/01/22 05:42:23;;;;;;;3.83;1.17;;;20.20;99.90;;;;;;5071798;28;20187;-70
2023/01/22 05:44:50;;;;;;;4.30;1.50;;;20.20;99.90;;;;;;5071280;28;20183;-70
2023/01/22 05:47:17;;;;;;;6.20;1.37;;;20.20;99.90;;;;;;5071941;28;20295;-70
2023/01/22 05:49:45;;;;;;;7.43;1.20;;;20.30;99.90;;;;;;5071672;28;20199;-71
2023/01/22 05:52:12;;;;;;;6.67;1.37;;;20.40;99.90;;;;;;5071579;28;20195;-71
2023/01/22 05:54:40;;;;;;;4.13;1.47;;;20.50;99.90;;;;;;5072017;28;20267;-71
2023/01/22 05:57:07;;;;;;;4.53;1.20;;;20.40;99.90;;;;;;5072020;28;20179;-70
2023/01/22 05:59:35;;;;;;;4.37;0.93;;;20.50;99.90;;;;;;5071113;28;20216;-70
2023/01/22 06:02:02;;;;;;;3.37;1.13;;;20.50;99.90;;;;;;5070268;28;20188;-74
2023/01/22 06:04:29;;;;;;;5.27;1.40;;;20.70;99.90;;;;;;5071810;28;20652;-71
2023/01/22 06:06:57;;;;;;;8.23;1.43;;;20.90;99.90;;;;;;5071327;28;20211;-75
2023/01/22 06:09:24;;;;;;;3.47;1.10;;;20.90;99.90;;;;;;5071330;28;20235;-71
2023/01/22 06:11:52;;;;;;;5.83;1.20;;;20.90;99.90;;;;;;5070258;28;20185;-70
2023/01/22 06:14:19;;;;;;;4.17;1.53;;;20.80;99.90;;;;;;5070424;28;20194;-70
2023/01/22 06:16:47;;;;;;;6.03;1.43;;;20.90;99.90;;;;;;5071769;28;20190;-70
2023/01/22 06:19:14;;;;;;;6.93;1.60;;;21.00;99.90;;;;;;5070450;28;20543;-71
2023/01/22 06:21:42;;;;;;;5.37;1.30;;;20.90;99.90;;;;;;5070717;28;20645;-70
2023/01/22 06:24:10;;;;;;;3.47;1.23;;;20.80;99.90;;;;;;5070302;28;20180;-71
2023/01/22 06:26:38;;;;;;;5.73;1.80;;;21.00;99.90;;;;;;5069864;28;20483;-79
2023/01/22 06:29:06;;;;;;;2.30;1.10;;;20.90;99.90;;;;;;5071339;28;20210;-70
2023/01/22 06:31:33;;;;;;;4.57;1.40;;;20.80;99.90;;;;;;5071282;28;20183;-71
2023/01/22 06:34:00;;;;;;;4.03;1.43;;;20.70;99.90;;;;;;5071745;28;20177;-70
2023/01/22 06:36:28;;;;;;;4.33;1.20;;;20.70;99.90;;;;;;5069801;28;20263;-71
2023/01/22 06:38:55;;;;;;;5.17;0.80;;;20.70;99.90;;;;;;5071597;28;20175;-72
2023/01/22 06:41:23;;;;;;;2.80;1.10;;;20.70;99.90;;;;;;5071266;28;20173;-70
2023/01/22 06:43:50;;;;;;;3.50;1.10;;;20.60;99.90;;;;;;5071410;28;20186;-75
2023/01/22 06:46:18;;;;;;;3.27;1.17;;;20.80;99.90;;;;;;5071615;28;20179;-77
2023/01/22 06:48:45;;;;;;;3.07;1.00;;;20.80;99.90;;;;;;5071638;28;20208;-71
2023/01/22 06:51:13;;;;;;;4.23;1.10;;;20.80;99.90;;;;;;5071005;28;20685;-75
2023/01/22 06:53:41;;;;;;;2.33;0.70;;;20.70;99.90;;;;;;5051909;28;20181;-72
2023/01/22 06:56:08;;;;;;;3.53;0.80;;;20.60;99.90;;;;;;5071384;28;20875;-71
2023/01/22 06:58:36;;;;;;;6.90;1.27;;;20.50;99.90;;;;;;5071059;28;20183;-76
2023/01/22 07:01:05;;;;;;;3.03;0.83;;;20.50;99.90;;;;;;5071321;28;20605;-74
2023/01/22 07:03:32;;;;;;;6.43;0.90;;;20.60;99.90;;;;;;5070915;28;20189;-71
2023/01/22 07:06:02;;;;;;;2.23;0.70;;;20.70;99.90;;;;;;5071066;28;20271;-71
2023/01/22 07:08:31;;;;;;;6.33;1.03;;;20.70;99.90;;;;;;5070902;28;20305;-74
2023/01/22 07:10:59;;;;;;;3.23;1.07;;;20.60;99.90;;;;;;5071133;28;20176;-72
2023/01/22 07:13:26;;;;;;;3.70;0.90;;;20.50;99.90;;;;;;5070413;28;20657;-72
2023/01/22 07:15:54;;;;;;;4.07;1.10;;;20.50;99.90;;;;;;5070706;28;20553;-71
2023/01/22 07:18:22;;;;;;;4.40;1.00;;;20.60;99.90;;;;;;5071145;28;20209;-72
2023/01/22 07:20:50;;;;;;;3.47;1.20;;;20.70;99.90;;;;;;5070584;28;20196;-70
2023/01/22 07:23:18;;;;;;;5.50;1.30;;;20.60;99.90;;;;;;5070081;28;20185;-85
2023/01/22 07:25:45;;;;;;;4.93;1.37;;;20.50;99.90;;;;;;5071035;28;20221;-71
2023/01/22 07:28:14;;;;;;;4.27;1.30;;;20.30;99.90;;;;;;5074293;28;20688;-74
2023/01/22 07:30:42;;;;;;;3.63;1.20;;;20.30;99.90;;;;;;5074490;28;20231;-71
2023/01/22 07:33:11;;;;;;;4.73;1.00;;;20.30;99.90;;;;;;5072806;28;20271;-76
2023/01/22 07:35:39;;;;;;;4.87;1.10;;;20.20;99.90;;;;;;5074075;28;20208;-70
2023/01/22 07:38:07;;;;;;;3.90;0.87;;;20.10;99.90;;;;;;5074394;28;20180;-71
2023/01/22 07:40:34;;;;;;;3.03;0.90;;;20.10;99.90;;;;;;5074568;28;20620;-71
2023/01/22 07:43:06;;;;;;;3.47;1.10;;;20.00;99.90;;;;;;5073550;28;20180;-70
2023/01/22 07:45:34;;;;;;;2.50;1.30;;;19.90;99.90;;;;;;5074449;28;20249;-70
2023/01/22 07:48:04;;;;;;;5.27;0.83;;;19.90;99.90;;;;;;5073908;28;20215;-71
2023/01/22 07:50:32;;;;;;;6.93;1.13;;;19.80;99.90;;;;;;5073928;28;20172;-71
2023/01/22 07:53:00;;;;;;;5.83;0.90;;;19.80;99.90;;;;;;5073710;28;20274;-73
2023/01/22 07:55:27;;;;;;;8.30;1.37;;;19.80;99.90;;;;;;5074184;28;20218;-70
2023/01/22 07:58:04;;;;;;;3.60;0.93;;;19.80;99.90;;;;;;5073854;28;20177;-76
2023/01/22 08:00:34;;;;;;;7.73;1.70;;;19.80;99.90;;;;;;5072604;28;20179;-69
2023/01/22 08:03:05;;;;;;;6.73;1.23;;;19.80;99.90;;;;;;5073623;28;20250;-70
2023/01/22 08:05:32;;;;;;;7.70;1.67;;;19.80;99.90;;;;;;5073647;28;20286;-72
2023/01/22 08:08:00;;;;;;;4.70;1.00;;;19.70;99.90;;;;;;5073925;28;20318;-71
2023/01/22 08:10:28;;;;;;;5.30;1.13;;;19.70;99.90;;;;;;5073035;28;20311;-70
2023/01/22 08:12:55;;;;;;;3.57;1.23;;;19.70;99.90;;;;;;5074618;28;20193;-77
2023/01/22 08:15:23;;;;;;;8.40;1.17;;;19.60;99.90;;;;;;5075883;28;20259;-68
2023/01/22 08:17:51;;;;;;;5.73;1.10;;;19.60;99.90;;;;;;5074569;28;20487;-72
2023/01/22 08:20:19;;;;;;;4.73;1.20;;;19.60;99.90;;;;;;5074918;28;20693;-74
2023/01/22 08:22:47;;;;;;;6.10;0.90;;;19.60;99.90;;;;;;5073552;28;20185;-69
2023/01/22 08:25:15;;;;;;;3.73;1.20;;;19.60;99.90;;;;;;5073550;28;20177;-74
2023/01/22 08:27:42;;;;;;;4.50;1.00;;;19.50;99.90;;;;;;5074423;28;20196;-69
2023/01/22 08:30:10;;;;;;;2.80;0.90;;;19.50;99.90;;;;;;5074805;28;20227;-76
2023/01/22 08:32:40;;;;;;;3.63;1.00;;;19.50;99.90;;;;;;5074812;28;20172;-71
2023/01/22 08:35:09;;;;;;;5.67;1.07;;;19.50;99.90;;;;;;5073588;28;20213;-70
2023/01/22 08:37:36;;;;;;;5.93;1.10;;;19.40;99.90;;;;;;5082189;28;20177;-78
2023/01/22 08:40:05;;;;;;;2.47;0.73;;;19.40;99.90;;;;;;5075819;28;20629;-70
2023/01/22 08:42:34;;;;;;;2.63;1.10;;;19.40;99.90;;;;;;5075990;28;20242;-71
2023/01/22 08:45:35;;;;;;;3.77;1.03;;;19.40;99.90;;;;;;5075193;28;20266;-79
2023/01/22 08:48:03;;;;;;;2.93;0.77;;;19.40;99.90;;;;;;5074109;28;20568;-70
2023/01/22 08:50:30;;;;;;;4.30;1.00;;;19.40;99.90;;;;;;5075436;28;20622;-75
2023/01/22 08:52:58;;;;;;;6.40;1.47;;;19.40;99.90;;;;;;5074602;28;20177;-73
2023/01/22 08:55:26;;;;;;;4.47;1.00;;;19.40;99.90;;;;;;5074233;28;20222;-72
2023/01/22 08:57:55;;;;;;;5.30;1.07;;;19.40;99.90;;;;;;5074675;28;20257;-78
2023/01/22 09:00:23;;;;;;;4.07;0.90;;;19.30;99.90;;;;;;5074300;28;20266;-72
2023/01/22 09:02:50;;;;;;;2.20;0.80;;;19.30;99.90;;;;;;5074360;28;20634;-71
2023/01/22 09:05:18;;;;;;;3.27;0.90;;;19.30;99.90;;;;;;5074247;28;20211;-70
2023/01/22 09:07:45;;;;;;;4.70;1.20;;;19.40;99.90;;;;;;5074440;28;20232;-71
2023/01/22 09:10:13;;;;;;;3.33;1.00;;;19.40;99.90;;;;;;5074043;28;20221;-71
2023/01/22 09:12:40;;;;;;;4.50;0.97;;;19.30;99.90;;;;;;5073892;28;20181;-78
2023/01/22 09:15:09;;;;;;;1.73;0.80;;;19.20;99.90;;;;;;5073969;28;20168;-69
2023/01/22 09:17:36;;;;;;;4.70;1.30;;;19.30;99.90;;;;;;5074044;28;20207;-78
2023/01/22 09:20:04;;;;;;;1.60;1.10;;;19.20;99.90;;;;;;5073700;28;20560;-71
2023/01/22 09:22:31;;;;;;;4.03;0.93;;;19.10;99.90;;;;;;5073590;28;20168;-69
2023/01/22 09:24:59;;;;;;;3.93;1.10;;;19.10;99.90;;;;;;5073848;28;20169;-76
2023/01/22 09:27:26;;;;;;;3.13;1.00;;;19.20;99.90;;;;;;5073631;28;20261;-75
2023/01/22 09:29:53;;;;;;;7.23;1.30;;;19.20;99.90;;;;;;5073805;28;20177;-70
2023/01/22 09:32:21;;;;;;;2.63;1.30;;;19.10;99.90;;;;;;5073601;28;20237;-70
2023/01/22 09:34:48;;;;;;;3.93;1.40;;;19.20;99.90;;;;;;5073774;28;20200;-72
2023/01/22 09:37:16;;;;;;;3.53;1.37;;;19.20;99.90;;;;;;5073575;28;20557;-70
2023/01/22 09:39:43;;;;;;;3.37;1.10;;;19.10;99.90;;;;;;5073686;28;20175;-70
2023/01/22 09:42:26;;;;;;;6.00;1.03;;;19.20;99.90;;;;;;5073613;28;20216;-69
2023/01/22 09:44:59;;;;;;;3.03;0.90;;;19.10;99.90;;;;;;5073669;28;20177;-75
2023/01/22 09:48:01;;;;;;;7.13;1.57;;;19.10;99.90;;;;;;5073242;28;20306;-70
2023/01/22 09:50:33;;;;;;;3.20;0.93;;;19.10;99.90;;;;;;5061300;28;20241;-70
2023/01/22 09:53:07;;;;;;;3.57;1.17;;;19.10;99.90;;;;;;5073564;28;20184;-70
2023/01/22 09:55:44;;;;;;;5.40;1.40;;;19.10;99.90;;;;;;5073473;28;20230;-69
2023/01/22 09:58:19;;;;;;;6.53;1.83;;;19.20;99.90;;;;;;5073526;28;20540;-70
2023/01/22 10:00:55;;;;;;;4.43;1.57;;;19.30;99.90;;;;;;5073308;28;20175;-70
2023/01/22 10:03:25;;;;;;;6.00;1.57;;;19.20;99.90;;;;;;5073389;28;20176;-69
2023/01/22 10:06:06;;;;;;;1.93;0.90;;;19.10;99.90;;;;;;5073329;28;20168;-69
2023/01/22 10:09:12;;;;;;;5.77;1.43;;;18.80;99.90;;;;;;5072686;28;20247;-69
2023/01/22 10:11:40;;;;;;;5.10;1.37;;;18.80;99.90;;;;;;5073286;28;20175;-69
2023/01/22 10:14:15;;;;;;;8.33;1.53;;;18.60;99.90;;;;;;5073223;28;20183;-70
2023/01/22 10:16:44;;;;;;;6.23;1.50;;;18.50;99.90;;;;;;5073614;28;20186;-70
2023/01/22 10:19:14;;;;;;;5.27;1.57;;;18.50;99.90;;;;;;5071934;28;20675;-69
2023/01/22 10:21:54;;;;;;;6.67;1.37;;;18.50;99.90;;;;;;5072550;28;20172;-70
2023/01/22 10:24:21;;;;;;;3.63;1.23;;;18.60;99.90;;;;;;5072655;28;20236;-69
2023/01/22 10:26:53;;;;;;;3.80;1.00;;;18.60;99.90;;;;;;5072268;28;20258;-69
2023/01/22 10:29:33;;;;;;;3.77;1.20;;;18.60;99.90;;;;;;5072366;28;20182;-70
2023/01/22 10:32:15;;;;;;;4.97;1.60;;;18.50;99.90;;;;;;5072563;28;20230;-72
2023/01/22 10:34:43;;;;;;;4.80;1.40;;;18.50;99.90;;;;;;5072331;28;20175;-76
2023/01/22 10:37:16;;;;;;;5.43;1.10;;;18.50;99.90;;;;;;5072558;28;20709;-77
2023/01/22 10:39:46;;;;;;;1.57;0.87;;;18.50;99.90;;;;;;5072690;28;20641;-70
2023/01/22 10:42:24;;;;;;;4.47;1.10;;;18.40;99.90;;;;;;5071997;28;20259;-70
2023/01/22 10:44:56;;;;;;;6.10;1.20;;;18.40;99.90;;;;;;5072362;28;20229;-77
2023/01/22 10:47:26;;;;;;;7.70;1.63;;;18.30;99.90;;;;;;5072391;28;20243;-75
2023/01/22 10:50:14;;;;;;;3.40;1.13;;;18.30;99.90;;;;;;5072423;28;20226;-74
2023/01/22 10:52:48;;;;;;;3.30;1.30;;;18.30;99.90;;;;;;5072157;28;20175;-70
2023/01/22 10:55:31;;;;;;;3.53;0.90;;;18.30;99.90;;;;;;5072385;28;20179;-71
2023/01/22 10:58:05;;;;;;;4.37;1.20;;;18.30;99.90;;;;;;5071014;28;20550;-70
2023/01/22 11:00:34;;;;;;;4.23;1.23;;;18.30;99.90;;;;;;5073521;28;20183;-70
2023/01/22 11:03:12;;;;;;;4.43;1.33;;;18.30;99.90;;;;;;5076133;28;20175;-70
2023/01/22 11:05:44;;;;;;;6.47;1.67;;;18.30;99.90;;;;;;5075739;28;20178;-69
2023/01/22 11:08:22;;;;;;;3.23;1.30;;;18.40;99.90;;;;;;5076093;28;20206;-70
2023/01/22 11:10:58;;;;;;;4.47;1.50;;;18.30;99.90;;;;;;5075336;28;20700;-69
2023/01/22 11:13:42;;;;;;;3.50;1.40;;;18.40;99.90;;;;;;5075854;28;20219;-69
2023/01/22 11:16:24;;;;;;;3.33;1.20;;;18.40;99.90;;;;;;5076101;28;20180;-69
2023/01/22 11:18:59;;;;;;;5.37;1.20;;;18.40;99.90;;;;;;5074926;28;20223;-70
2023/01/22 11:21:46;;;;;;;5.00;1.70;;;18.40;99.90;;;;;;5075684;28;20183;-69
2023/01/22 11:24:19;;;;;;;2.33;1.07;;;18.40;99.90;;;;;;5075966;28;20180;-69
2023/01/22 11:27:01;;;;;;;6.00;1.60;;;18.40;99.90;;;;;;5074270;28;20176;-69
2023/01/22 11:29:41;;;;;;;5.20;1.03;;;18.30;99.90;;;;;;5073851;28;20254;-69
2023/01/22 11:32:42;;;;;;;5.10;1.40;;;18.30;99.90;;;;;;5075217;28;20276;-69
2023/01/22 11:35:27;;;;;;;5.17;1.20;;;18.30;99.90;;;;;;5073940;28;20274;-74
2023/01/22 11:38:19;;;;;;;2.47;1.10;;;18.30;99.90;;;;;;5073064;28;20176;-69
2023/01/22 11:41:30;;;;;;;1.47;0.90;;;18.30;99.90;;;;;;5074523;28;20183;-69
2023/01/22 11:44:25;;;;;;;5.37;1.20;;;18.30;99.90;;;;;;5060698;28;20191;-71
2023/01/22 11:47:01;;;;;;;4.30;1.10;;;18.20;99.90;;;;;;5071676;28;20176;-74
2023/01/22 11:49:43;;;;;;;3.13;0.90;;;18.20;99.90;;;;;;5068743;28;20184;-70
2023/01/22 11:52:17;;;;;;;4.23;1.30;;;18.20;99.90;;;;;;5073429;28;20290;-70
2023/01/22 11:55:03;;;;;;;4.70;1.10;;;18.20;99.90;;;;;;5075742;28;20548;-71
2023/01/22 11:57:37;;;;;;;2.70;0.90;;;18.30;99.90;;;;;;5074909;28;20199;-71
2023/01/22 12:00:46;;;;;;;8.43;0.90;;;18.30;99.90;;;;;;5074465;28;20207;-71
2023/01/22 12:03:22;;;;;;;2.97;1.17;;;18.30;99.90;;;;;;5050344;28;20271;-71
2023/01/22 12:06:41;;;;;;;2.83;1.10;;;18.30;99.90;;;;;;5069927;28;20718;-80
2023/01/22 12:09:18;;;;;;;5.00;1.00;;;18.30;99.90;;;;;;5043693;28;20236;-70
2023/01/22 12:12:30;;;;;;;4.10;0.93;;;18.40;99.90;;;;;;5069875;28;20184;-71
2023/01/22 12:15:20;;;;;;;5.33;1.40;;;18.30;99.90;;;;;;5059745;28;20563;-70
2023/01/22 12:18:06;;;;;;;1.43;0.73;;;18.30;99.90;;;;;;5064802;28;20573;-71
2023/01/22 12:21:10;;;;;;;2.57;0.90;;;18.30;99.90;;;;;;5074973;28;20190;-74
2023/01/22 12:23:56;;;;;;;2.67;1.00;;;18.40;99.90;;;;;;5072832;28;20188;-71
2023/01/22 12:26:30;;;;;;;3.40;0.90;;;18.40;99.90;;;;;;5072148;28;20546;-70
2023/01/22 12:29:13;;;;;;;5.23;1.10;;;18.40;99.90;;;;;;5074189;28;20579;-70
2023/01/22 12:31:51;;;;;;;4.07;1.20;;;18.40;99.90;;;;;;5054763;28;20176;-71
2023/01/22 12:34:30;;;;;;;6.83;1.80;;;18.40;99.90;;;;;;5054980;28;20267;-70
2023/01/22 12:36:58;;;;;;;5.47;1.47;;;18.40;99.90;;;;;;5068898;28;20340;-72
2023/01/22 12:39:40;;;;;;;3.10;0.90;;;18.40;99.90;;;;;;5074917;28;20267;-77
2023/01/22 12:42:39;;;;;;;4.23;1.50;;;18.40;99.90;;;;;;5074274;28;20263;-71
2023/01/22 12:45:24;;;;;;;3.20;1.03;;;18.40;99.90;;;;;;5071750;28;20275;-71
2023/01/22 12:48:04;;;;;;;2.67;0.90;;;18.40;99.90;;;;;;5074302;28;20212;-74
2023/01/22 12:50:31;;;;;;;2.03;0.70;;;18.50;99.90;;;;;;5073129;28;20258;-76
2023/01/22 12:53:03;;;;;;;3.63;0.90;;;18.50;99.90;;;;;;5074054;28;20286;-70
2023/01/22 12:55:34;;;;;;;4.50;1.27;;;18.40;99.90;;;;;;5073976;28;20214;-71
2023/01/22 12:58:02;;;;;;;2.97;0.80;;;18.40;99.90;;;;;;5073609;28;20637;-76
2023/01/22 13:00:37;;;;;;;5.20;0.90;;;18.40;99.90;;;;;;5073289;28;20229;-81
2023/01/22 13:03:25;;;;;;;3.23;0.90;;;18.50;99.90;;;;;;5072794;28;20187;-69
2023/01/22 13:05:53;;;;;;;1.70;0.83;;;18.50;99.90;;;;;;5072835;28;20179;-77
2023/01/22 13:08:20;;;;;;;2.80;0.80;;;18.50;99.90;;;;;;5073468;28;20669;-81
2023/01/22 13:11:03;;;;;;;4.23;0.93;;;18.50;99.90;;;;;;5073193;28;20226;-74
2023/01/22 13:13:35;;;;;;;5.60;0.97;;;18.50;99.90;;;;;;5070677;28;20188;-70
2023/01/22 13:16:26;;;;;;;6.80;1.20;;;18.50;99.90;;;;;;5073507;28;20180;-69